LTCD

Details ICAO LTCD (ERC)
Name ERZINCAN
Region Turkey
Timezone Europe/Istanbul (UTC+3.0)
Plans Departing 28
Arriving 33
Stats Elevation 3,783 ft / 1,153 m (AMSL)
Location 39.710700° 39.521100°
Runways 2
Magnetic Variation 6.084° E
Sunrise 2018-10-20 03:38:03 UTC / 2018-10-20 06:38:03 Local
Sunset 2018-10-20 14:37:43 UTC / 2018-10-20 17:37:43 Local
Advertisement - Login to hide

Runways

ID Width Length Bearing (true/mag) Surface Threshold Overrun Markings Lighting
11 148 ft / 45 m 9,825 ft / 2,995 m 110.83° / 104.75° CONCRETE 0 ft / 0 m 197 ft / 60 m APP EDGE THRESHOLD
13 137 ft / 42 m 5,890 ft / 1,795 m 127.15° / 121.07° CONCRETE 0 ft / 0 m 0 ft / 0 m APP
29 148 ft / 45 m 9,825 ft / 2,995 m 290.86° / 284.77° CONCRETE 0 ft / 0 m 197 ft / 60 m APP EDGE THRESHOLD CALVERT
31 137 ft / 42 m 5,890 ft / 1,795 m 307.17° / 301.08° CONCRETE 0 ft / 0 m 0 ft / 0 m APP

Map

Weather


0- 5 10 15 20 25 30 35+ Temperature / °C

Clouds and Precipitation
Forecast for 2018-10-20 12:00 UTC. Updated 3 hours ago

Ground ~20,000 ft ~40,000 ft Winds

METAR

LTCD 201150Z VRB02KT 9999 FEW040TCU SCT045 BKN090 19/08 Q1019 BECMG 10012KT

TAF

Not found

Frequencies

Ground 121.90 MHz
Tower 118.50 MHz
Warning: Do not use this data for real-world aviation or navigation. No guarantee of current accuracy is given.